Aqualoyalty — A8ZC6 — position and weather

sailwx.info

Track history (hours):
 
Tides and Currents Weather Stations Pressure Air Temp Water Temp Dewpoint Dewpoint Depression Visibility Wind Speed Wind Dir Waves Ship Positions

Aqualoyalty

Last reported at 2016-Mar-28 02:25 UTC. Time now 2016-May-03 22:02 UTC.
Position N 32°31' W 124°10'.
Warning: this ship's position is 36 days out of date.

Length 249 m; draft 8.4 m.

Type: Ship. MMSI: 636015177.

Date/timePositionNaut miles runAvg speedWind from/ knotsBaromVisibWave heightAir tempDewpointWater temp
2016-Mar-28 02:25N 32°31' W 124°10'2412.1
2016-Mar-28 00:28N 32°54' W 124°19'16511.5
2016-Mar-27 10:10N 35°36' W 123°48'711.6
2016-Mar-27 09:33N 35°43' W 123°46'1211.6
2016-Mar-27 08:33N 35°54' W 123°42'4611.5
2016-Mar-27 04:33N 36°38' W 123°28'2511.8
2016-Mar-27 02:27N 37°02' W 123°20'2812.1
2016-Mar-27 00:11N 37°29' W 123°11'610.4
2016-Mar-26 23:33N 37°33' W 123°05'1111.1
2016-Mar-26 22:33N 37°40' W 122°53'1211.7
2016-Mar-26 21:33N 37°45' W 122°40'1010.5
2016-Mar-26 20:34N 37°49' W 122°28'7 6.7
2016-Mar-26 19:34N 37°46' W 122°21'0 0.1
2016-Mar-26 18:32N 37°46' W 122°21'0 0.1
2016-Mar-26 17:32N 37°46' W 122°21'0 0.3
2016-Mar-26 16:32N 37°46' W 122°21'0 0.1
2016-Mar-26 15:32N 37°46' W 122°21'0 0.0
2016-Mar-26 14:32N 37°46' W 122°21'0 0.0
2016-Mar-26 13:32N 37°46' W 122°21'0 0.0
2016-Mar-26 12:32N 37°46' W 122°21'0 0.0
2016-Mar-26 11:32N 37°46' W 122°21'0 0.1
2016-Mar-26 10:32N 37°46' W 122°21'1 1.4
2016-Mar-26 09:33N 37°47' W 122°22'1211.8
2016-Mar-26 08:34N 37°59' W 122°26'1111.4
2016-Mar-26 07:33N 38°04' W 122°13'5 2.5
2016-Mar-26 05:32N 38°02' W 122°07'0 0.0
2016-Mar-26 04:32N 38°02' W 122°07'0 0.0
2016-Mar-26 03:32N 38°02' W 122°07'0 0.0
2016-Mar-26 02:26N 38°02' W 122°07'0 0.0
2016-Mar-26 01:32N 38°02' W 122°07'0 0.0
2016-Mar-26 00:26N 38°02' W 122°07'0 0.0
2016-Mar-25 23:32N 38°02' W 122°07'0 0.0
2016-Mar-25 22:32N 38°02' W 122°07'0 0.0
2016-Mar-25 13:26N 38°02' W 122°07'0 0.0
2016-Mar-25 12:32N 38°02' W 122°07'0 0.0
2016-Mar-25 11:32N 38°02' W 122°07'0 0.0
2016-Mar-25 10:26N 38°02' W 122°07'0 0.0
2016-Mar-25 09:26N 38°02' W 122°07'0 0.0
2016-Mar-25 08:32N 38°02' W 122°07'0 0.0
2016-Mar-24 21:33N 38°02' W 122°07'4 4.2
2016-Mar-24 20:33N 38°04' W 122°12'8 8.0
2016-Mar-24 19:33N 38°02' W 122°22'9 9.3
2016-Mar-24 18:33N 37°53' W 122°26'8 7.8
2016-Mar-24 17:33N 37°46' W 122°21'0 0.1
2016-Mar-24 16:31N 37°46' W 122°21'0 0.1
2016-Mar-24 15:31N 37°46' W 122°21'0 0.2
2016-Mar-24 14:31N 37°46' W 122°21'0 0.0
2016-Mar-24 13:31N 37°46' W 122°21'0 0.0
2016-Mar-24 12:31N 37°46' W 122°21'0 0.0
2016-Mar-24 11:31N 37°46' W 122°21'0 0.1
2016-Mar-24 10:31N 37°46' W 122°21'0 0.2
2016-Mar-24 09:31N 37°46' W 122°21'0 0.2
2016-Mar-24 08:28N 37°46' W 122°21'0 0.0
2016-Mar-24 07:31N 37°46' W 122°21'1 1.0
2016-Mar-24 06:33N 37°46' W 122°22'8 7.8
2016-Mar-24 05:33N 37°48' W 122°32'1110.6
2016-Mar-24 04:33N 37°43' W 122°44'9 9.2
2016-Mar-24 03:33N 37°38' W 122°53'1010.5
2016-Mar-24 02:33N 37°31' W 123°03'1110.8
2016-Mar-24 01:33N 37°21' W 123°09'1110.6
2016-Mar-24 00:33N 37°10' W 123°10'1110.6
2016-Mar-23 23:31N 36°59' W 123°10'1010.4
2016-Mar-23 22:33N 36°49' W 123°10'7 7.2
2016-Mar-23 21:33N 36°42' W 123°10'3411.2
2016-Mar-23 18:33N 36°09' W 123°09'1111.1
2016-Mar-23 17:31N 35°57' W 123°09'1010.7
2016-Mar-23 16:33N 35°47' W 123°09'1010.5
2016-Mar-23 15:33N 35°36' W 123°10'269 8.6
2016-Mar-22 08:14N 33°35' W 118°17'710.5
2016-Mar-22 07:33N 33°40' W 118°12'5 4.5
2016-Mar-22 06:25N 33°45' W 118°13'0 0.0
2016-Mar-22 05:23N 33°45' W 118°13'0 0.0
2016-Mar-22 01:11N 33°45' W 118°13'0 0.0
2016-Mar-22 00:32N 33°45' W 118°13'0 0.0
2016-Mar-21 23:32N 33°45' W 118°13'0 0.0
2016-Mar-21 22:32N 33°45' W 118°13'0 0.0
2016-Mar-21 21:32N 33°45' W 118°13'0 0.0
2016-Mar-21 20:32N 33°45' W 118°13'0 0.0
2016-Mar-21 19:32N 33°45' W 118°13'0 0.0
2016-Mar-21 18:32N 33°45' W 118°13'0 0.0
2016-Mar-21 17:32N 33°45' W 118°13'0 0.0
2016-Mar-21 16:32N 33°45' W 118°13'0 0.0
2016-Mar-21 15:32N 33°45' W 118°13'0 0.0
2016-Mar-21 14:32N 33°45' W 118°13'0 0.0
2016-Mar-21 13:32N 33°45' W 118°13'0 0.0
2016-Mar-21 10:29N 33°45' W 118°13'2 1.9
2016-Mar-21 09:33N 33°44' W 118°12'4 4.2
2016-Mar-21 08:33N 33°40' W 118°10'4 4.0
2016-Mar-21 07:33N 33°36' W 118°10'4 3.9
2016-Mar-21 06:34N 33°32' W 118°08'4 3.8
2016-Mar-21 05:33N 33°28' W 118°07'5 5.0
2016-Mar-21 04:33N 33°24' W 118°05'9 9.2
2016-Mar-21 03:33N 33°16' W 117°59'9 9.2
2016-Mar-21 02:34N 33°09' W 117°52'8 7.7
2016-Mar-21 01:33N 33°03' W 117°46'1 0.6
2016-Mar-21 00:33N 33°03' W 117°47'1 0.7
2016-Mar-20 23:33N 33°03' W 117°48'1 0.6
2016-Mar-20 22:34N 33°04' W 117°48'1 0.8
2016-Mar-20 21:34N 33°04' W 117°49'6 6.2
2016-Mar-20 20:33N 33°04' W 117°57'9 9.3
2016-Mar-20 19:33N 32°55' W 117°53'1010.1
2016-Mar-20 18:33N 32°45' W 117°50'8 8.4
2016-Mar-20 17:33N 32°37' W 117°47'4 3.5
2016-Mar-20 16:33N 32°34' W 117°45'8 7.8
2016-Mar-20 15:33N 32°29' W 117°38'9 8.6
2016-Mar-20 14:33N 32°23' W 117°31'3 2.8
2016-Mar-20 13:29N 32°20' W 117°29'0 0.5
2016-Mar-20 12:33N 32°21' W 117°29'0 0.5
2016-Mar-20 11:33N 32°21' W 117°30'0 0.5
2016-Mar-20 10:34N 32°21' W 117°30'1 0.5
2016-Mar-20 09:33N 32°22' W 117°30'1 0.6
2016-Mar-20 08:33N 32°22' W 117°30'1 0.6
2016-Mar-20 07:33N 32°23' W 117°30'1 0.7
2016-Mar-20 06:33N 32°24' W 117°30'1 0.7
2016-Mar-20 05:33N 32°24' W 117°30'1 0.7
2016-Mar-20 04:33N 32°25' W 117°30'1 0.7
2016-Mar-20 03:33N 32°26' W 117°30'1 0.6
2016-Mar-20 02:34N 32°26' W 117°31'1 0.6
2016-Mar-20 01:33N 32°27' W 117°31'1 0.7
2016-Mar-20 00:33N 32°27' W 117°32'1 0.7
2016-Mar-19 23:31N 32°28' W 117°32'1 0.8
2016-Mar-19 22:33N 32°28' W 117°32'1 0.8
2016-Mar-19 21:33N 32°29' W 117°33'1 0.7
2016-Mar-19 20:34N 32°30' W 117°34'1 0.6
2016-Mar-19 19:33N 32°30' W 117°34'1 0.6
2016-Mar-19 18:33N 32°30' W 117°35'1 0.5
2016-Mar-19 17:33N 32°30' W 117°35'1 0.5
2016-Mar-19 16:33N 32°30' W 117°36'0 0.4
2016-Mar-19 15:33N 32°30' W 117°37'0 0.4
2016-Mar-19 14:33N 32°30' W 117°37'0 0.4
2016-Mar-19 13:34N 32°30' W 117°37'0 0.3
2016-Mar-19 12:33N 32°30' W 117°38'0 0.3
2016-Mar-19 11:33N 32°30' W 117°38'0 0.3
2016-Mar-19 10:33N 32°30' W 117°38'0 0.2
2016-Mar-19 09:33N 32°30' W 117°39'0 0.3
2016-Mar-19 08:33N 32°30' W 117°39'0 0.2
2016-Mar-19 07:33N 32°30' W 117°39'0 0.3
2016-Mar-19 06:33N 32°31' W 117°39'0 0.3
2016-Mar-19 05:33N 32°31' W 117°39'0 0.2
2016-Mar-19 04:33N 32°31' W 117°39'0 0.2
2016-Mar-19 03:33N 32°31' W 117°39'0 0.2
2016-Mar-19 02:33N 32°32' W 117°40'0 0.3
2016-Mar-19 01:33N 32°32' W 117°40'0 0.4
2016-Mar-19 00:33N 32°32' W 117°40'1 1.0
2016-Mar-18 23:33N 32°32' W 117°39'7 7.2
2016-Mar-18 22:33N 32°26' W 117°33'7 7.2
2016-Mar-18 21:32N 32°20' W 117°28'1 0.8
2016-Mar-18 20:33N 32°20' W 117°28'1 0.8
2016-Mar-18 19:30N 32°20' W 117°28'1 0.8
2016-Mar-18 18:33N 32°21' W 117°29'1 0.7
2016-Mar-18 17:33N 32°22' W 117°29'1 0.7
2016-Mar-18 16:33N 32°22' W 117°30'1 0.7
2016-Mar-18 15:33N 32°23' W 117°30'1 0.6
2016-Mar-18 14:33N 32°23' W 117°31'1 0.6
2016-Mar-18 13:33N 32°24' W 117°31'1 0.5
2016-Mar-18 12:34N 32°24' W 117°32'1 0.6
2016-Mar-18 11:33N 32°25' W 117°32'0 0.4
2016-Mar-18 10:33N 32°25' W 117°32'0 0.4
2016-Mar-18 09:33N 32°25' W 117°33'0 0.4
2016-Mar-18 08:33N 32°26' W 117°33'1 0.5
2016-Mar-18 07:33N 32°26' W 117°33'1 0.6
2016-Mar-18 06:33N 32°27' W 117°33'1 0.5
2016-Mar-18 05:31N 32°27' W 117°34'1 0.5
2016-Mar-18 04:33N 32°28' W 117°34'0 0.5
2016-Mar-18 03:33N 32°28' W 117°34'1 0.5
2016-Mar-18 02:33N 32°29' W 117°35'  
Track history (hours):
 
Tides and Currents Weather Stations Pressure Air Temp Water Temp Dewpoint Dewpoint Depression Visibility Wind Speed Wind Dir Waves Ship Positions

Aqualoyalty

Last reported at 2016-Mar-28 02:25 UTC. Time now 2016-May-03 22:02 UTC.
Position N 32°31' W 124°10'.
Warning: this ship's position is 36 days out of date.

Length 249 m; draft 8.4 m.

Type: Ship. MMSI: 636015177.

Date/timePositionNaut miles runAvg speedWind from/ knotsBaromVisibWave heightAir tempDewpointWater temp
2016-Mar-28 02:25N 32°31' W 124°10'2412.1
2016-Mar-28 00:28N 32°54' W 124°19'16511.5
2016-Mar-27 10:10N 35°36' W 123°48'711.6
2016-Mar-27 09:33N 35°43' W 123°46'1211.6
2016-Mar-27 08:33N 35°54' W 123°42'4611.5
2016-Mar-27 04:33N 36°38' W 123°28'2511.8
2016-Mar-27 02:27N 37°02' W 123°20'2812.1
2016-Mar-27 00:11N 37°29' W 123°11'610.4
2016-Mar-26 23:33N 37°33' W 123°05'1111.1
2016-Mar-26 22:33N 37°40' W 122°53'1211.7
2016-Mar-26 21:33N 37°45' W 122°40'1010.5
2016-Mar-26 20:34N 37°49' W 122°28'7 6.7
2016-Mar-26 19:34N 37°46' W 122°21'0 0.1
2016-Mar-26 18:32N 37°46' W 122°21'0 0.1
2016-Mar-26 17:32N 37°46' W 122°21'0 0.3
2016-Mar-26 16:32N 37°46' W 122°21'0 0.1
2016-Mar-26 15:32N 37°46' W 122°21'0 0.0
2016-Mar-26 14:32N 37°46' W 122°21'0 0.0
2016-Mar-26 13:32N 37°46' W 122°21'0 0.0
2016-Mar-26 12:32N 37°46' W 122°21'0 0.0
2016-Mar-26 11:32N 37°46' W 122°21'0 0.1
2016-Mar-26 10:32N 37°46' W 122°21'1 1.4
2016-Mar-26 09:33N 37°47' W 122°22'1211.8
2016-Mar-26 08:34N 37°59' W 122°26'1111.4
2016-Mar-26 07:33N 38°04' W 122°13'5 2.5
2016-Mar-26 05:32N 38°02' W 122°07'0 0.0
2016-Mar-26 04:32N 38°02' W 122°07'0 0.0
2016-Mar-26 03:32N 38°02' W 122°07'0 0.0
2016-Mar-26 02:26N 38°02' W 122°07'0 0.0
2016-Mar-26 01:32N 38°02' W 122°07'0 0.0
2016-Mar-26 00:26N 38°02' W 122°07'0 0.0
2016-Mar-25 23:32N 38°02' W 122°07'0 0.0
2016-Mar-25 22:32N 38°02' W 122°07'0 0.0
2016-Mar-25 13:26N 38°02' W 122°07'0 0.0
2016-Mar-25 12:32N 38°02' W 122°07'0 0.0
2016-Mar-25 11:32N 38°02' W 122°07'0 0.0
2016-Mar-25 10:26N 38°02' W 122°07'0 0.0
2016-Mar-25 09:26N 38°02' W 122°07'0 0.0
2016-Mar-25 08:32N 38°02' W 122°07'0 0.0
2016-Mar-24 21:33N 38°02' W 122°07'4 4.2
2016-Mar-24 20:33N 38°04' W 122°12'8 8.0
2016-Mar-24 19:33N 38°02' W 122°22'9 9.3
2016-Mar-24 18:33N 37°53' W 122°26'8 7.8
2016-Mar-24 17:33N 37°46' W 122°21'0 0.1
2016-Mar-24 16:31N 37°46' W 122°21'0 0.1
2016-Mar-24 15:31N 37°46' W 122°21'0 0.2
2016-Mar-24 14:31N 37°46' W 122°21'0 0.0
2016-Mar-24 13:31N 37°46' W 122°21'0 0.0
2016-Mar-24 12:31N 37°46' W 122°21'0 0.0
2016-Mar-24 11:31N 37°46' W 122°21'0 0.1
2016-Mar-24 10:31N 37°46' W 122°21'0 0.2
2016-Mar-24 09:31N 37°46' W 122°21'0 0.2
2016-Mar-24 08:28N 37°46' W 122°21'0 0.0
2016-Mar-24 07:31N 37°46' W 122°21'1 1.0
2016-Mar-24 06:33N 37°46' W 122°22'8 7.8
2016-Mar-24 05:33N 37°48' W 122°32'1110.6
2016-Mar-24 04:33N 37°43' W 122°44'9 9.2
2016-Mar-24 03:33N 37°38' W 122°53'1010.5
2016-Mar-24 02:33N 37°31' W 123°03'1110.8
2016-Mar-24 01:33N 37°21' W 123°09'1110.6
2016-Mar-24 00:33N 37°10' W 123°10'1110.6
2016-Mar-23 23:31N 36°59' W 123°10'1010.4
2016-Mar-23 22:33N 36°49' W 123°10'7 7.2
2016-Mar-23 21:33N 36°42' W 123°10'3411.2
2016-Mar-23 18:33N 36°09' W 123°09'1111.1
2016-Mar-23 17:31N 35°57' W 123°09'1010.7
2016-Mar-23 16:33N 35°47' W 123°09'1010.5
2016-Mar-23 15:33N 35°36' W 123°10'269 8.6
2016-Mar-22 08:14N 33°35' W 118°17'710.5
2016-Mar-22 07:33N 33°40' W 118°12'5 4.5
2016-Mar-22 06:25N 33°45' W 118°13'0 0.0
2016-Mar-22 05:23N 33°45' W 118°13'0 0.0
2016-Mar-22 01:11N 33°45' W 118°13'0 0.0
2016-Mar-22 00:32N 33°45' W 118°13'0 0.0
2016-Mar-21 23:32N 33°45' W 118°13'0 0.0
2016-Mar-21 22:32N 33°45' W 118°13'0 0.0
2016-Mar-21 21:32N 33°45' W 118°13'0 0.0
2016-Mar-21 20:32N 33°45' W 118°13'0 0.0
2016-Mar-21 19:32N 33°45' W 118°13'0 0.0
2016-Mar-21 18:32N 33°45' W 118°13'0 0.0
2016-Mar-21 17:32N 33°45' W 118°13'0 0.0
2016-Mar-21 16:32N 33°45' W 118°13'0 0.0
2016-Mar-21 15:32N 33°45' W 118°13'0 0.0
2016-Mar-21 14:32N 33°45' W 118°13'0 0.0
2016-Mar-21 13:32N 33°45' W 118°13'0 0.0
2016-Mar-21 10:29N 33°45' W 118°13'2 1.9
2016-Mar-21 09:33N 33°44' W 118°12'4 4.2
2016-Mar-21 08:33N 33°40' W 118°10'4 4.0
2016-Mar-21 07:33N 33°36' W 118°10'4 3.9
2016-Mar-21 06:34N 33°32' W 118°08'4 3.8
2016-Mar-21 05:33N 33°28' W 118°07'5 5.0
2016-Mar-21 04:33N 33°24' W 118°05'9 9.2
2016-Mar-21 03:33N 33°16' W 117°59'9 9.2
2016-Mar-21 02:34N 33°09' W 117°52'8 7.7
2016-Mar-21 01:33N 33°03' W 117°46'1 0.6
2016-Mar-21 00:33N 33°03' W 117°47'1 0.7
2016-Mar-20 23:33N 33°03' W 117°48'1 0.6
2016-Mar-20 22:34N 33°04' W 117°48'1 0.8
2016-Mar-20 21:34N 33°04' W 117°49'6 6.2
2016-Mar-20 20:33N 33°04' W 117°57'9 9.3
2016-Mar-20 19:33N 32°55' W 117°53'1010.1
2016-Mar-20 18:33N 32°45' W 117°50'8 8.4
2016-Mar-20 17:33N 32°37' W 117°47'4 3.5
2016-Mar-20 16:33N 32°34' W 117°45'8 7.8
2016-Mar-20 15:33N 32°29' W 117°38'9 8.6
2016-Mar-20 14:33N 32°23' W 117°31'3 2.8
2016-Mar-20 13:29N 32°20' W 117°29'0 0.5
2016-Mar-20 12:33N 32°21' W 117°29'0 0.5
2016-Mar-20 11:33N 32°21' W 117°30'0 0.5
2016-Mar-20 10:34N 32°21' W 117°30'1 0.5
2016-Mar-20 09:33N 32°22' W 117°30'1 0.6
2016-Mar-20 08:33N 32°22' W 117°30'1 0.6
2016-Mar-20 07:33N 32°23' W 117°30'1 0.7
2016-Mar-20 06:33N 32°24' W 117°30'1 0.7
2016-Mar-20 05:33N 32°24' W 117°30'1 0.7
2016-Mar-20 04:33N 32°25' W 117°30'1 0.7
2016-Mar-20 03:33N 32°26' W 117°30'1 0.6
2016-Mar-20 02:34N 32°26' W 117°31'1 0.6
2016-Mar-20 01:33N 32°27' W 117°31'1 0.7
2016-Mar-20 00:33N 32°27' W 117°32'1 0.7
2016-Mar-19 23:31N 32°28' W 117°32'1 0.8
2016-Mar-19 22:33N 32°28' W 117°32'1 0.8
2016-Mar-19 21:33N 32°29' W 117°33'1 0.7
2016-Mar-19 20:34N 32°30' W 117°34'1 0.6
2016-Mar-19 19:33N 32°30' W 117°34'1 0.6
2016-Mar-19 18:33N 32°30' W 117°35'1 0.5
2016-Mar-19 17:33N 32°30' W 117°35'1 0.5
2016-Mar-19 16:33N 32°30' W 117°36'0 0.4
2016-Mar-19 15:33N 32°30' W 117°37'0 0.4
2016-Mar-19 14:33N 32°30' W 117°37'0 0.4
2016-Mar-19 13:34N 32°30' W 117°37'0 0.3
2016-Mar-19 12:33N 32°30' W 117°38'0 0.3
2016-Mar-19 11:33N 32°30' W 117°38'0 0.3
2016-Mar-19 10:33N 32°30' W 117°38'0 0.2
2016-Mar-19 09:33N 32°30' W 117°39'0 0.3
2016-Mar-19 08:33N 32°30' W 117°39'0 0.2
2016-Mar-19 07:33N 32°30' W 117°39'0 0.3
2016-Mar-19 06:33N 32°31' W 117°39'0 0.3
2016-Mar-19 05:33N 32°31' W 117°39'0 0.2
2016-Mar-19 04:33N 32°31' W 117°39'0 0.2
2016-Mar-19 03:33N 32°31' W 117°39'0 0.2
2016-Mar-19 02:33N 32°32' W 117°40'0 0.3
2016-Mar-19 01:33N 32°32' W 117°40'0 0.4
2016-Mar-19 00:33N 32°32' W 117°40'1 1.0
2016-Mar-18 23:33N 32°32' W 117°39'7 7.2
2016-Mar-18 22:33N 32°26' W 117°33'7 7.2
2016-Mar-18 21:32N 32°20' W 117°28'1 0.8
2016-Mar-18 20:33N 32°20' W 117°28'1 0.8
2016-Mar-18 19:30N 32°20' W 117°28'1 0.8
2016-Mar-18 18:33N 32°21' W 117°29'1 0.7
2016-Mar-18 17:33N 32°22' W 117°29'1 0.7
2016-Mar-18 16:33N 32°22' W 117°30'1 0.7
2016-Mar-18 15:33N 32°23' W 117°30'1 0.6
2016-Mar-18 14:33N 32°23' W 117°31'1 0.6
2016-Mar-18 13:33N 32°24' W 117°31'1 0.5
2016-Mar-18 12:34N 32°24' W 117°32'1 0.6
2016-Mar-18 11:33N 32°25' W 117°32'0 0.4
2016-Mar-18 10:33N 32°25' W 117°32'0 0.4
2016-Mar-18 09:33N 32°25' W 117°33'0 0.4
2016-Mar-18 08:33N 32°26' W 117°33'1 0.5
2016-Mar-18 07:33N 32°26' W 117°33'1 0.6
2016-Mar-18 06:33N 32°27' W 117°33'1 0.5
2016-Mar-18 05:31N 32°27' W 117°34'1 0.5
2016-Mar-18 04:33N 32°28' W 117°34'0 0.5
2016-Mar-18 03:33N 32°28' W 117°34'1 0.5
2016-Mar-18 02:33N 32°29' W 117°35'  

Dump ship's entire track history